Time;durP1;ratioP1;P1;durP2;ratioP2;P2;SDS_P1;SDS_P2;PMS_P1;PMS_P2;Temp;Humidity;BMP_temperature;BMP_pressure;BME280_temperature;BME280_humidity;BME280_pressure;Samples;Min_cycle;Max_cycle;Signal;HPM_P1;HPM_P2
2022/09/22 00:01:33;;;;;;;10.30;9.20;;;9.30;99.90;;;-141.84;82.67;18334.56;5052215;28;20251;-59
2022/09/22 00:04:04;;;;;;;10.70;9.70;;;9.20;99.90;;;-141.84;82.17;18367.06;5052512;28;20264;-60
2022/09/22 00:06:36;;;;;;;10.30;9.30;;;9.30;99.90;;;-141.84;81.83;18369.09;5052814;28;20281;-60
2022/09/22 00:09:07;;;;;;;10.03;9.03;;;9.30;99.90;;;-141.84;81.96;18322.38;5051988;28;20263;-59
2022/09/22 00:11:39;;;;;;;10.00;9.00;;;9.30;99.90;;;-141.84;82.00;18326.44;5051770;28;20248;-60
2022/09/22 00:14:12;;;;;;;10.20;9.30;;;9.30;99.90;;;-141.84;82.30;18328.47;5052092;28;20251;-60
2022/09/22 00:16:44;;;;;;;11.03;10.00;;;9.30;99.90;;;-141.84;82.50;18342.69;5051877;28;20229;-61
2022/09/22 00:19:15;;;;;;;10.70;9.70;;;9.30;99.90;;;-141.84;81.93;18326.44;5052307;28;20200;-60
2022/09/22 00:21:45;;;;;;;9.77;8.80;;;9.20;99.90;;;-141.84;82.03;18320.34;5052191;28;20235;-60
2022/09/22 00:24:14;;;;;;;10.57;9.57;;;9.20;99.90;;;-141.84;82.93;18310.19;5051922;28;20232;-59
2022/09/22 00:26:42;;;;;;;11.60;9.23;;;9.10;99.90;;;-141.84;83.27;18283.78;5051792;28;20248;-61
2022/09/22 00:29:14;;;;;;;9.73;8.83;;;9.10;99.90;;;-141.84;83.69;18293.94;5051823;28;20228;-60
2022/09/22 00:31:43;;;;;;;10.77;9.73;;;9.10;99.90;;;-141.84;83.16;18318.31;5051490;28;20271;-61
2022/09/22 00:34:16;;;;;;;10.30;9.30;;;9.10;99.90;;;-141.84;82.87;18300.03;5052055;28;20605;-61
2022/09/22 00:36:45;;;;;;;10.23;9.17;;;9.10;99.90;;;-141.84;82.79;18285.81;5052272;28;20408;-60
2022/09/22 00:39:16;;;;;;;10.90;9.90;;;9.10;99.90;;;-141.84;82.43;18314.25;5051682;28;20228;-59
2022/09/22 00:41:47;;;;;;;10.43;9.43;;;9.20;99.90;;;-141.84;82.05;18261.44;5051742;28;20300;-61
2022/09/22 00:44:40;;;;;;;9.53;8.53;;;9.20;99.90;;;-141.84;82.29;18289.88;5051665;28;20778;-60
2022/09/22 00:47:21;;;;;;;10.80;8.60;;;9.20;99.90;;;-141.84;82.05;18310.19;5051377;28;20222;-60
2022/09/22 00:49:56;;;;;;;11.03;8.23;;;9.20;99.90;;;-141.84;81.66;18310.19;5051997;28;20236;-60
2022/09/22 00:52:30;;;;;;;9.80;8.93;;;9.20;99.90;;;-141.84;81.67;18326.44;5051057;28;20726;-60
2022/09/22 00:55:05;;;;;;;10.67;9.57;;;9.20;99.90;;;-141.84;81.68;18316.28;5051787;28;20259;-60
2022/09/22 00:57:38;;;;;;;10.10;9.10;;;9.20;99.90;;;-141.84;81.45;18320.34;5051665;28;20219;-60
2022/09/22 01:00:11;;;;;;;10.67;9.37;;;9.20;99.90;;;-141.84;80.66;18314.25;5051415;28;20723;-59
2022/09/22 01:02:39;;;;;;;9.30;8.13;;;9.30;99.90;;;-141.84;80.68;18324.41;5051220;28;20232;-61
2022/09/22 01:05:09;;;;;;;9.97;8.97;;;9.30;99.90;;;-141.84;80.67;18342.69;5051407;28;20224;-59
2022/09/22 01:07:38;;;;;;;9.67;8.70;;;9.30;99.90;;;-141.84;80.51;18332.53;5051154;28;20224;-60
2022/09/22 01:10:07;;;;;;;9.23;8.37;;;9.30;99.90;;;-141.84;80.81;18326.44;5051209;28;20209;-59
2022/09/22 01:12:37;;;;;;;10.70;8.77;;;9.20;99.90;;;-141.84;81.62;18310.19;5051701;28;20228;-60
2022/09/22 01:15:22;;;;;;;10.37;8.60;;;9.20;99.90;;;-141.84;81.61;18304.09;5051176;28;20240;-61
2022/09/22 01:18:11;;;;;;;10.40;9.30;;;9.20;99.90;;;-141.84;80.67;18365.03;5050571;28;20225;-61
2022/09/22 01:21:16;;;;;;;9.33;8.40;;;9.30;99.90;;;-141.84;81.03;18330.50;5051168;28;20778;-60
2022/09/22 01:24:23;;;;;;;10.27;9.20;;;9.30;99.90;;;-141.84;80.67;18314.25;5050914;28;20229;-60
2022/09/22 01:27:23;;;;;;;10.70;9.37;;;9.30;99.90;;;-141.84;81.31;18312.22;5046659;28;20308;-60
2022/09/22 01:30:20;;;;;;;8.67;7.87;;;9.30;99.90;;;-141.84;80.71;18295.97;5047451;28;20646;-60
2022/09/22 01:33:17;;;;;;;9.43;8.53;;;9.30;99.90;;;-141.84;81.08;18328.47;5050718;28;20646;-61
2022/09/22 01:36:08;;;;;;;9.47;8.20;;;9.30;99.90;;;-141.84;81.52;18338.63;5050962;28;20337;-60
2022/09/22 01:38:45;;;;;;;9.37;8.47;;;9.20;99.90;;;-141.84;81.73;18316.28;5050591;28;20634;-60
2022/09/22 01:41:23;;;;;;;8.43;7.73;;;9.30;99.90;;;-141.84;81.31;18302.06;5051130;28;20228;-60
2022/09/22 01:43:56;;;;;;;8.83;8.03;;;9.20;99.90;;;-141.84;81.20;18304.09;5050660;28;20704;-62
2022/09/22 01:46:31;;;;;;;9.90;8.33;;;9.20;99.90;;;-141.84;80.85;18336.59;5050840;28;20310;-60
2022/09/22 01:49:06;;;;;;;8.63;7.83;;;9.20;99.90;;;-141.84;80.87;18281.75;5051023;28;20554;-60
2022/09/22 01:51:41;;;;;;;8.83;7.67;;;9.10;99.90;;;-141.84;81.27;18279.72;5051431;28;20189;-59
2022/09/22 01:54:17;;;;;;;9.23;8.43;;;9.00;99.90;;;-141.84;81.82;18289.88;5050396;28;20259;-61
2022/09/22 01:56:56;;;;;;;9.10;8.30;;;8.90;99.90;;;-141.84;82.54;18259.41;5050744;28;20224;-58
2022/09/22 01:59:29;;;;;;;9.83;8.80;;;8.80;99.90;;;-141.84;82.14;18249.25;5050790;28;20229;-60
2022/09/22 02:02:06;;;;;;;9.37;8.57;;;8.80;99.90;;;-141.84;82.42;18241.13;5050235;28;20723;-59
2022/09/22 02:04:43;;;;;;;9.07;8.23;;;8.70;99.90;;;-141.84;82.62;18261.44;5050845;28;20278;-61
2022/09/22 02:07:19;;;;;;;8.90;8.10;;;8.70;99.90;;;-141.84;83.20;18228.91;5050961;28;20186;-60
2022/09/22 02:09:50;;;;;;;9.53;8.63;;;8.60;99.90;;;-141.84;83.29;18190.31;5050725;28;20216;-61
2022/09/22 02:12:18;;;;;;;8.93;8.13;;;8.60;99.90;;;-141.84;83.16;18198.44;5050630;28;20218;-59
2022/09/22 02:14:47;;;;;;;9.63;8.67;;;8.50;99.90;;;-141.84;82.76;18230.94;5050483;28;20232;-59
2022/09/22 02:17:17;;;;;;;8.20;7.50;;;8.50;99.90;;;-141.84;82.89;18214.69;5050497;28;20221;-59
2022/09/22 02:19:45;;;;;;;8.77;7.97;;;8.40;99.90;;;-141.84;83.05;18208.59;5050523;28;20278;-60
2022/09/22 02:22:14;;;;;;;9.37;8.47;;;8.40;99.90;;;-141.84;83.57;18192.34;5050648;28;20247;-61
2022/09/22 02:24:45;;;;;;;9.03;8.13;;;8.30;99.90;;;-141.84;83.67;18186.25;5051071;28;20197;-61
2022/09/22 02:27:24;;;;;;;8.97;7.77;;;8.30;99.90;;;-141.84;83.77;18198.44;5050763;28;20236;-61
2022/09/22 02:29:58;;;;;;;8.60;7.80;;;8.20;99.90;;;-141.84;84.19;18165.94;5050820;28;20240;-60
2022/09/22 02:32:30;;;;;;;9.27;8.10;;;8.20;99.90;;;-141.84;84.26;18198.44;5053871;28;20228;-59
2022/09/22 02:35:00;;;;;;;9.43;8.43;;;8.10;99.90;;;-141.84;84.62;18141.56;5054040;28;20298;-60
2022/09/22 02:37:41;;;;;;;8.67;7.87;;;8.10;99.90;;;-141.84;84.54;18161.88;5054248;28;20229;-60
2022/09/22 02:40:24;;;;;;;8.40;7.60;;;8.10;99.90;;;-141.84;84.49;18145.63;5053790;28;20719;-60
2022/09/22 02:43:03;;;;;;;9.00;8.20;;;8.10;99.90;;;-141.84;84.09;18165.94;5054499;28;20177;-59
2022/09/22 02:45:45;;;;;;;9.00;8.20;;;8.10;99.90;;;-141.84;84.14;18163.91;5034232;28;20213;-60
2022/09/22 02:48:22;;;;;;;10.10;8.90;;;8.00;99.90;;;-141.84;84.19;18153.75;5033613;28;20264;-61
2022/09/22 02:50:52;;;;;;;9.10;8.30;;;8.00;99.90;;;-141.84;83.85;18165.94;5033757;28;20229;-60
2022/09/22 02:53:20;;;;;;;8.60;7.80;;;8.00;99.90;;;-141.84;83.89;18161.88;5033452;28;20238;-60
2022/09/22 02:55:49;;;;;;;9.40;8.50;;;8.00;99.90;;;-141.84;83.64;18161.88;5033908;28;20259;-60
2022/09/22 02:58:17;;;;;;;9.43;8.53;;;8.00;99.90;;;-141.84;83.83;18145.63;5033408;28;20206;-60
2022/09/22 03:00:45;;;;;;;9.30;8.40;;;8.00;99.90;;;-141.84;83.92;18123.28;5034053;28;20260;-59
2022/09/22 03:03:15;;;;;;;9.10;8.20;;;7.90;99.90;;;-141.84;84.15;18155.78;5052091;28;20958;-59
2022/09/22 03:05:43;;;;;;;9.10;8.20;;;7.90;99.90;;;-141.84;84.62;18111.09;5053533;28;20259;-60
2022/09/22 03:08:10;;;;;;;9.57;8.53;;;7.80;99.90;;;-141.84;84.58;18131.41;5053469;28;20244;-60
2022/09/22 03:10:39;;;;;;;9.60;8.60;;;7.80;99.90;;;-141.84;84.42;18125.31;5053067;28;20225;-60
2022/09/22 03:13:06;;;;;;;8.93;8.00;;;7.80;99.90;;;-141.84;84.49;18111.09;5053433;28;20225;-59
2022/09/22 03:15:45;;;;;;;9.57;8.67;;;7.80;99.90;;;-141.84;84.83;18090.78;5053784;28;20606;-59
2022/09/22 03:18:15;;;;;;;8.93;8.10;;;7.70;99.90;;;-141.84;85.33;18098.91;5052986;28;20724;-59
2022/09/22 03:20:43;;;;;;;10.33;9.33;;;7.70;99.90;;;-141.84;85.26;18135.47;5052823;28;20720;-58
2022/09/22 03:23:11;;;;;;;10.83;8.60;;;7.70;99.90;;;-141.84;84.33;18096.88;5052932;28;20225;-60
2022/09/22 03:25:39;;;;;;;9.50;8.60;;;7.70;99.90;;;-141.84;84.01;18102.97;5052715;28;20236;-60
2022/09/22 03:28:07;;;;;;;10.00;9.00;;;7.70;99.90;;;-141.84;84.31;18109.06;5052874;28;20212;-60
2022/09/22 03:30:39;;;;;;;9.37;8.53;;;7.70;99.90;;;-141.84;84.43;18107.03;5053432;28;20201;-60
2022/09/22 03:33:07;;;;;;;9.67;8.63;;;7.70;99.90;;;-141.84;83.95;18119.22;5052679;28;20716;-59
2022/09/22 03:35:36;;;;;;;10.97;8.43;;;7.70;99.90;;;-141.84;83.73;18121.25;5052750;28;20647;-66
2022/09/22 03:38:04;;;;;;;9.40;8.43;;;7.70;99.90;;;-141.84;83.38;18115.16;5052800;28;20237;-65
2022/09/22 03:40:32;;;;;;;10.90;8.93;;;7.70;99.90;;;-141.84;83.27;18107.03;5052744;28;20355;-65
2022/09/22 03:43:00;;;;;;;8.97;7.83;;;7.70;99.90;;;-141.84;82.63;18105.00;5052434;28;20685;-65
2022/09/22 03:45:28;;;;;;;8.90;8.10;;;7.70;99.90;;;-141.84;82.50;18143.59;5053141;28;20202;-65
2022/09/22 03:47:57;;;;;;;9.33;8.43;;;7.80;99.90;;;-141.84;82.59;18125.31;5052433;28;20221;-66
2022/09/22 03:50:27;;;;;;;9.83;8.83;;;7.70;99.90;;;-141.84;82.97;18143.59;5052469;28;20232;-65
2022/09/22 03:52:57;;;;;;;9.30;8.43;;;7.60;99.90;;;-141.84;83.47;18109.06;5052667;28;20225;-66
2022/09/22 03:55:25;;;;;;;9.33;8.43;;;7.60;99.90;;;-141.84;84.15;18084.69;5052659;28;20228;-66
2022/09/22 03:57:53;;;;;;;8.87;8.03;;;7.50;99.90;;;-141.84;84.62;18127.34;5052741;28;20201;-66
2022/09/22 04:00:21;;;;;;;9.40;8.53;;;7.40;99.90;;;-141.84;84.91;18082.66;5052751;28;20240;-66
2022/09/22 04:02:49;;;;;;;10.17;8.63;;;7.40;99.90;;;-141.84;84.56;18094.84;5052063;28;20238;-65
2022/09/22 04:05:17;;;;;;;9.90;9.00;;;7.40;99.90;;;-141.84;84.80;18098.91;5052289;28;20264;-64
2022/09/22 04:07:45;;;;;;;10.20;9.20;;;7.40;99.90;;;-141.84;85.17;18082.66;5052252;28;20225;-66
2022/09/22 04:10:15;;;;;;;9.73;8.83;;;7.40;99.90;;;-141.84;84.99;18094.84;5051959;28;20213;-65
2022/09/22 04:12:43;;;;;;;9.30;8.40;;;7.40;99.90;;;-141.84;84.40;18052.19;5052749;28;20537;-64
2022/09/22 04:15:11;;;;;;;10.07;9.17;;;7.40;99.90;;;-141.84;84.60;18070.47;5052028;28;20260;-65
2022/09/22 04:17:39;;;;;;;11.40;8.63;;;7.30;99.90;;;-141.84;84.80;18082.66;5051871;28;20240;-65
2022/09/22 04:20:10;;;;;;;10.27;8.93;;;7.40;99.90;;;-141.84;85.09;18082.66;5051940;28;20515;-66
2022/09/22 04:22:38;;;;;;;9.40;8.50;;;7.30;99.90;;;-141.84;85.66;18086.72;5051967;28;20221;-65
2022/09/22 04:25:09;;;;;;;9.60;8.70;;;7.30;99.90;;;-141.84;85.75;18076.56;5051851;28;20198;-66
2022/09/22 04:27:38;;;;;;;10.17;9.27;;;7.30;99.90;;;-141.84;85.47;18056.25;5052343;28;20256;-66
2022/09/22 04:30:08;;;;;;;10.53;8.63;;;7.30;99.90;;;-141.84;85.45;18033.91;5051589;28;20228;-65
2022/09/22 04:32:36;;;;;;;9.97;9.07;;;7.30;99.90;;;-141.84;84.68;18084.69;5051688;28;20221;-65
2022/09/22 04:35:05;;;;;;;9.87;8.97;;;7.40;99.90;;;-141.84;84.03;18078.59;5051430;28;20237;-65
2022/09/22 04:37:33;;;;;;;9.57;8.67;;;7.40;99.90;;;-141.84;83.79;18064.38;5051726;28;20298;-66
2022/09/22 04:40:02;;;;;;;8.53;7.67;;;7.40;99.90;;;-141.84;84.00;18033.91;5051762;28;20201;-64
2022/09/22 04:42:30;;;;;;;10.13;9.13;;;7.30;99.90;;;-141.84;84.28;18074.53;5052237;28;20227;-65
2022/09/22 04:45:00;;;;;;;9.80;8.83;;;7.40;99.90;;;-141.84;83.83;18062.34;5051298;28;20228;-66
2022/09/22 04:47:29;;;;;;;9.70;8.77;;;7.40;99.90;;;-141.84;84.12;18050.16;5051563;28;20704;-64
2022/09/22 04:49:57;;;;;;;9.53;8.57;;;7.30;99.90;;;-141.84;84.65;18054.22;5051460;28;20225;-65
2022/09/22 04:52:26;;;;;;;11.77;9.13;;;7.30;99.90;;;-141.84;85.10;18015.63;5050649;28;20221;-66
2022/09/22 04:54:54;;;;;;;9.33;8.43;;;7.30;99.90;;;-141.84;85.28;18058.28;5051018;28;20224;-64
2022/09/22 04:57:22;;;;;;;10.77;9.67;;;7.20;99.90;;;-141.84;85.15;18035.94;5051137;28;20755;-65
2022/09/22 04:59:50;;;;;;;9.73;8.83;;;7.30;99.90;;;-141.84;84.55;18046.09;5050965;28;20233;-66
2022/09/22 05:02:19;;;;;;;10.53;9.10;;;7.20;99.90;;;-141.84;84.62;18064.38;5050583;28;20225;-65
2022/09/22 05:04:47;;;;;;;10.20;8.70;;;7.20;99.90;;;-141.84;84.54;18068.44;5051105;28;20298;-66
2022/09/22 05:07:15;;;;;;;10.53;9.43;;;7.10;99.90;;;-141.84;84.18;18046.09;5050699;28;20681;-65
2022/09/22 05:09:43;;;;;;;11.97;8.90;;;7.20;99.90;;;-141.84;84.16;18046.09;5051282;28;20205;-66
2022/09/22 05:12:11;;;;;;;11.03;9.27;;;7.20;99.90;;;-141.84;84.42;18054.22;5050730;28;20225;-66
2022/09/22 05:14:41;;;;;;;14.27;9.57;;;7.20;99.90;;;-141.84;84.83;18037.97;5051009;28;20321;-64
2022/09/22 05:17:09;;;;;;;11.83;9.20;;;7.20;99.90;;;-141.84;84.83;18068.44;5050659;28;20225;-65
2022/09/22 05:19:38;;;;;;;12.00;9.20;;;7.30;99.90;;;-141.84;84.03;18017.66;5050802;28;20286;-67
2022/09/22 05:22:06;;;;;;;10.13;9.00;;;7.30;99.90;;;-141.84;83.58;18076.56;5050518;28;20213;-65
2022/09/22 05:24:34;;;;;;;10.67;9.67;;;7.30;99.90;;;-141.84;84.05;18092.81;5051212;28;20227;-66
2022/09/22 05:27:03;;;;;;;10.13;8.83;;;7.30;99.90;;;-141.84;84.28;18058.28;5050572;28;20250;-66
2022/09/22 05:29:31;;;;;;;9.83;8.83;;;7.30;99.90;;;-141.84;83.93;18042.03;5050939;28;20252;-65
2022/09/22 05:31:59;;;;;;;9.50;8.60;;;7.30;99.90;;;-141.84;83.93;18062.34;5051054;28;20233;-65
2022/09/22 05:34:27;;;;;;;9.47;8.50;;;7.40;99.90;;;-141.84;83.75;18042.03;5050801;28;20233;-67
2022/09/22 05:36:57;;;;;;;9.63;8.67;;;7.40;99.90;;;-141.84;83.75;18082.66;5051034;28;20198;-66
2022/09/22 05:39:25;;;;;;;9.40;8.40;;;7.50;99.90;;;-141.84;82.99;18054.22;5050879;28;20267;-65
2022/09/22 05:41:53;;;;;;;9.93;8.43;;;7.60;99.90;;;-141.84;82.44;18094.84;5050870;28;20237;-66
2022/09/22 05:44:22;;;;;;;8.97;8.07;;;7.60;99.90;;;-141.84;80.90;18084.69;5050824;28;20335;-65
2022/09/22 05:46:50;;;;;;;8.67;7.80;;;7.70;99.90;;;-141.84;81.64;18115.16;5050471;28;20217;-65
2022/09/22 05:49:18;;;;;;;9.77;8.30;;;7.70;99.90;;;-141.84;82.27;18074.53;5050581;28;20689;-66
2022/09/22 05:51:46;;;;;;;7.93;7.23;;;7.70;99.90;;;-141.84;81.27;18131.41;5050663;28;20613;-66
2022/09/22 05:54:15;;;;;;;9.27;8.47;;;7.70;99.90;;;-141.84;80.58;18117.19;5050090;28;20233;-66
2022/09/22 05:56:50;;;;;;;8.70;7.80;;;7.80;99.90;;;-141.84;81.15;18123.28;5050427;28;20275;-65
2022/09/22 05:59:18;;;;;;;9.10;8.20;;;7.80;99.90;;;-141.84;80.89;18147.66;5050366;28;20232;-66
2022/09/22 06:01:46;;;;;;;8.77;7.40;;;7.90;99.90;;;-141.84;80.80;18149.69;5050322;28;20604;-65
2022/09/22 06:04:15;;;;;;;9.00;8.07;;;8.00;99.90;;;-141.84;81.06;18137.50;5051640;28;20255;-66
2022/09/22 06:06:43;;;;;;;9.27;8.37;;;8.00;99.90;;;-141.84;81.47;18141.56;5055075;28;20205;-67
2022/09/22 06:09:11;;;;;;;8.47;7.67;;;8.00;99.90;;;-141.84;81.63;18155.78;5054199;28;20783;-65
2022/09/22 06:11:40;;;;;;;9.73;8.13;;;8.10;99.90;;;-141.84;81.40;18167.97;5054726;28;20633;-66
2022/09/22 06:14:08;;;;;;;9.40;8.37;;;8.20;99.90;;;-141.84;81.04;18163.91;5055190;28;20576;-68
2022/09/22 06:16:36;;;;;;;8.70;7.90;;;8.20;99.90;;;-141.84;81.14;18167.97;5054195;28;20693;-67
2022/09/22 06:19:05;;;;;;;8.80;8.00;;;8.30;99.90;;;-141.84;81.46;18182.19;5054146;28;20668;-66
2022/09/22 06:21:33;;;;;;;9.83;8.83;;;8.40;99.90;;;-141.84;80.80;18167.97;5054876;28;20201;-67
2022/09/22 06:24:02;;;;;;;8.47;7.67;;;8.40;99.90;;;-141.84;80.32;18204.53;5054169;28;20225;-66
2022/09/22 06:26:30;;;;;;;8.27;7.47;;;8.50;99.90;;;-141.84;79.59;18167.97;5054184;28;20248;-66
2022/09/22 06:28:59;;;;;;;9.60;7.67;;;8.60;99.90;;;-141.84;79.75;18216.72;5053967;28;20271;-67
2022/09/22 06:31:27;;;;;;;8.90;7.73;;;8.70;99.90;;;-141.84;78.72;18204.53;5054454;28;20233;-66
2022/09/22 06:33:55;;;;;;;9.33;8.43;;;8.80;99.90;;;-141.84;77.97;18235.00;5054213;28;20201;-67
2022/09/22 06:36:30;;;;;;;8.63;7.93;;;8.90;99.90;;;-141.84;77.78;18255.34;5054145;28;20233;-66
2022/09/22 06:38:58;;;;;;;8.13;7.33;;;8.90;99.90;;;-141.84;78.05;18285.81;5053807;28;20236;-66
2022/09/22 06:41:27;;;;;;;8.80;7.83;;;9.00;99.90;;;-141.84;77.73;18283.78;5053850;28;20307;-67
2022/09/22 06:43:55;;;;;;;9.07;8.17;;;9.10;99.90;;;-141.84;76.55;18334.56;5054067;28;20232;-68
2022/09/22 06:46:26;;;;;;;8.20;7.40;;;9.30;99.90;;;-141.84;76.16;18360.97;5053929;28;20221;-66
2022/09/22 06:48:56;;;;;;;8.37;7.47;;;9.50;99.90;;;-141.84;76.21;18342.69;5053950;28;20193;-66
2022/09/22 06:51:25;;;;;;;9.77;8.23;;;9.60;99.90;;;-141.84;75.10;18407.69;5053991;28;20279;-66
2022/09/22 06:53:54;;;;;;;8.43;7.47;;;9.80;99.90;;;-141.84;75.05;18399.56;5053175;28;20237;-66
2022/09/22 06:56:24;;;;;;;8.40;7.60;;;9.90;99.90;;;-141.84;74.82;18432.09;5053196;28;20649;-66
2022/09/22 06:58:53;;;;;;;9.80;8.10;;;10.00;99.90;;;-141.84;74.36;18460.53;5053482;28;20604;-66
2022/09/22 07:01:39;;;;;;;9.23;7.80;;;10.10;99.90;;;-141.84;73.66;18493.03;5053399;28;20795;-66
2022/09/22 07:04:08;;;;;;;11.53;7.10;;;10.20;99.90;;;-141.84;73.45;18517.41;5053128;28;20284;-66
2022/09/22 07:06:39;;;;;;;11.57;7.37;;;10.20;99.90;;;-141.84;72.23;18533.66;5053814;28;20251;-66
2022/09/22 07:09:07;;;;;;;9.67;7.37;;;10.20;99.90;;;-141.84;71.97;18539.75;5053426;28;20225;-65
2022/09/22 07:11:36;;;;;;;8.43;7.60;;;10.30;99.90;;;-141.84;72.27;18562.09;5053231;28;20651;-65
2022/09/22 07:14:09;;;;;;;7.17;6.57;;;10.40;99.90;;;-141.84;71.73;18574.28;5052853;28;20774;-66
2022/09/22 07:16:39;;;;;;;8.03;7.20;;;10.40;99.90;;;-141.84;72.09;18588.53;5051807;28;20236;-66
2022/09/22 07:19:07;;;;;;;7.47;6.77;;;10.50;99.90;;;-141.84;71.11;18612.91;5052529;28;20190;-66
2022/09/22 07:21:36;;;;;;;7.77;7.13;;;10.60;99.90;;;-141.84;70.17;18677.91;5053592;28;20208;-66
2022/09/22 07:24:07;;;;;;;8.97;7.60;;;10.70;99.90;;;-141.84;69.60;18716.53;5053624;28;20229;-66
2022/09/22 07:26:38;;;;;;;7.50;6.73;;;10.70;99.90;;;-141.84;70.14;18702.28;5054174;28;20318;-66
2022/09/22 07:29:10;;;;;;;7.40;6.57;;;10.80;99.90;;;-141.84;69.59;18716.53;5053999;28;20225;-65
2022/09/22 07:31:41;;;;;;;8.03;6.60;;;10.80;99.90;;;-141.84;69.94;18749.03;5053973;28;20222;-67
2022/09/22 07:34:09;;;;;;;7.30;6.57;;;10.90;99.90;;;-141.84;69.97;18740.91;5053631;28;20727;-67
2022/09/22 07:36:38;;;;;;;7.60;6.90;;;11.00;99.90;;;-141.84;69.59;18744.97;5054355;28;20230;-66
2022/09/22 07:39:10;;;;;;;6.80;6.20;;;11.10;99.90;;;-141.84;69.60;18795.75;5053665;28;20224;-66
2022/09/22 07:41:42;;;;;;;7.73;7.03;;;11.20;99.90;;;-141.84;68.49;18807.94;5053893;28;20229;-66
2022/09/22 07:47:01;;;;;;;10.30;7.73;;;11.40;99.90;;;-141.84;68.36;18868.91;5053666;28;20278;-66
2022/09/22 07:49:29;;;;;;;7.37;6.57;;;11.50;99.90;;;-141.84;68.31;18889.22;5053730;28;20259;-66
2022/09/22 07:51:57;;;;;;;6.47;5.80;;;11.60;99.90;;;-141.84;68.18;18905.47;5054047;28;20677;-66
2022/09/22 07:54:27;;;;;;;7.30;6.60;;;11.60;99.90;;;-141.84;67.96;18944.09;5053600;28;20217;-67
2022/09/22 07:56:57;;;;;;;7.70;6.27;;;11.80;99.90;;;-141.84;67.49;18974.56;5053453;28;20225;-66
2022/09/22 07:59:26;;;;;;;6.40;5.80;;;11.80;99.90;;;-141.84;67.21;18994.88;5053512;28;20257;-65
2022/09/22 08:01:54;;;;;;;6.87;6.17;;;11.90;99.90;;;-141.84;66.65;19051.78;5053397;28;20419;-67
2022/09/22 08:04:25;;;;;;;7.13;6.17;;;12.10;99.90;;;-141.84;64.82;19167.59;5053123;28;20225;-66
2022/09/22 08:06:55;;;;;;;6.00;5.43;;;12.20;99.90;;;-141.84;65.52;19165.56;5053519;28;20197;-67
2022/09/22 08:09:24;;;;;;;5.50;5.07;;;12.30;99.90;;;-141.84;65.61;19169.63;5052661;28;20239;-67
2022/09/22 08:11:53;;;;;;;6.20;5.70;;;12.40;99.90;;;-141.84;65.18;19185.88;5052854;28;20259;-66
2022/09/22 08:14:22;;;;;;;5.70;5.20;;;12.50;99.90;;;-141.84;65.30;19232.63;5052913;28;20225;-67
2022/09/22 08:16:52;;;;;;;5.40;4.87;;;12.60;99.90;;;-141.84;64.34;19311.88;5052854;28;20753;-66
2022/09/22 08:19:24;;;;;;;5.47;4.50;;;12.70;99.90;;;-141.84;64.21;19393.16;5052834;28;20225;-65
2022/09/22 08:21:53;;;;;;;5.18;4.68;;;12.90;99.90;;;-141.84;63.32;19437.88;5053546;28;20190;-65
2022/09/22 08:24:22;;;;;;;6.30;4.73;;;13.00;99.90;;;-141.84;62.48;19498.84;5052530;28;20229;-65
2022/09/22 08:26:54;;;;;;;8.90;5.27;;;13.10;99.90;;;-141.84;61.30;19628.91;5052548;28;20622;-66
2022/09/22 08:29:23;;;;;;;5.10;4.60;;;13.20;99.90;;;-141.84;62.27;19572.00;5051980;28;20225;-65
2022/09/22 08:31:52;;;;;;;9.15;5.38;;;13.20;99.90;;;-141.84;61.50;19616.72;5052565;28;20274;-67
2022/09/22 08:34:21;;;;;;;4.90;4.40;;;13.30;99.90;;;-141.84;61.97;19606.53;5052690;28;20232;-66
2022/09/22 08:36:50;;;;;;;5.00;4.60;;;13.40;99.90;;;-141.84;62.21;19598.41;5053073;28;20228;-65
2022/09/22 08:39:19;;;;;;;4.97;4.47;;;13.40;99.90;;;-141.84;61.69;19651.25;5052350;28;20233;-67
2022/09/22 08:42:08;;;;;;;5.00;4.50;;;13.50;99.90;;;-141.84;60.66;19726.44;5052613;28;20236;-66
2022/09/22 08:44:48;;;;;;;5.32;4.53;;;13.70;99.90;;;-141.84;60.90;19710.19;5052449;28;20228;-67
2022/09/22 08:51:50;;;;;;;5.30;4.50;;;13.70;99.90;;;-141.84;60.87;19746.78;5052341;28;20232;-66
2022/09/22 08:53:21;;;;;;;3.67;3.38;;;13.80;99.90;;;-141.84;61.00;19791.47;5052148;28;20232;-67
2022/09/22 08:56:05;;;;;;;5.32;4.88;;;13.90;99.90;;;-141.84;59.61;19893.09;5052174;28;20228;-65
2022/09/22 08:58:43;;;;;;;5.90;4.72;;;14.00;99.90;;;-141.84;59.41;19919.53;5052467;28;20224;-68
2022/09/22 09:01:36;;;;;;;4.60;4.20;;;14.00;99.90;;;-141.84;59.75;19899.19;5052020;28;20196;-67
2022/09/22 09:04:35;;;;;;;4.30;3.90;;;14.00;99.90;;;-141.84;59.28;19958.13;5052056;28;20182;-67
2022/09/22 09:07:15;;;;;;;4.13;3.75;;;14.10;99.90;;;-141.84;59.24;19964.25;5052088;28;20209;-66
2022/09/22 09:10:03;;;;;;;4.10;3.70;;;14.20;99.90;;;-141.84;59.36;19952.03;5052173;28;20263;-67
2022/09/22 09:12:53;;;;;;;4.28;3.72;;;14.30;99.90;;;-141.84;59.55;19964.25;5052345;28;20209;-67
2022/09/22 09:15:51;;;;;;;4.38;3.97;;;14.30;99.90;;;-141.84;57.57;20134.97;5051991;28;20226;-67
2022/09/22 09:18:32;;;;;;;4.78;3.47;;;14.50;99.90;;;-141.84;57.81;20102.44;5051832;28;20224;-67
2022/09/22 09:21:04;;;;;;;4.03;3.63;;;14.50;99.90;;;-141.84;57.90;20130.91;5051841;28;20240;-66
2022/09/22 09:23:42;;;;;;;3.22;2.88;;;14.50;99.90;;;-141.84;57.92;20120.75;5051676;28;20233;-66
2022/09/22 09:26:35;;;;;;;4.50;4.10;;;14.40;99.90;;;-141.84;57.64;20173.59;5051830;28;20294;-67
2022/09/22 09:29:07;;;;;;;3.15;2.72;;;14.60;99.90;;;-141.84;55.45;20271.16;5052013;28;20225;-67
2022/09/22 09:31:45;;;;;;;2.65;2.30;;;14.70;99.90;;;-141.84;nan;20313.84;5052054;28;20294;-66
2022/09/22 09:34:16;;;;;;;4.05;2.30;;;14.80;99.90;;;-141.84;54.28;20334.16;5051668;28;20892;-68
2022/09/22 09:36:51;;;;;;;2.45;2.17;;;14.90;99.90;;;-141.84;54.07;20340.25;5052218;28;20201;-67
2022/09/22 09:39:30;;;;;;;2.65;2.20;;;15.00;99.90;;;-141.84;52.56;20433.75;5052888;28;20286;-66
2022/09/22 09:42:03;;;;;;;3.13;2.20;;;15.10;99.90;;;-141.84;52.82;20411.41;5055948;28;20248;-66
2022/09/22 09:44:38;;;;;;;2.90;2.47;;;15.10;99.90;;;-141.84;52.47;20407.34;5055742;28;20286;-68
2022/09/22 09:47:20;;;;;;;4.30;2.67;;;15.10;99.90;;;-141.84;53.37;20391.06;5055928;28;20244;-61
2022/09/22 09:49:53;;;;;;;3.05;2.25;;;15.10;99.90;;;-141.84;53.80;20413.44;5055766;28;20681;-61
2022/09/22 09:52:24;;;;;;;3.60;2.22;;;15.10;99.90;;;-141.84;53.12;20466.28;5055552;28;20231;-60
2022/09/22 09:54:54;;;;;;;2.15;1.92;;;15.30;99.90;;;-141.84;52.43;20478.47;5055909;28;20194;-60
2022/09/22 09:57:23;;;;;;;2.15;1.95;;;15.40;99.90;;;-141.84;52.51;20508.97;5055403;28;20301;-62
2022/09/22 10:00:30;;;;;;;2.97;1.92;;;15.60;99.90;;;-141.84;49.93;20600.44;5055554;28;20307;-60
2022/09/22 10:03:15;;;;;;;2.20;2.00;;;15.90;99.90;;;-141.84;49.83;20616.69;5055528;28;20315;-61
2022/09/22 10:05:57;;;;;;;3.00;1.77;;;16.00;99.90;;;-141.84;49.70;20685.81;5055527;28;20307;-60
2022/09/22 10:08:27;;;;;;;2.10;1.98;;;16.20;99.90;;;-141.84;49.19;20724.44;5055309;28;20236;-60
2022/09/22 10:10:58;;;;;;;2.10;1.90;;;16.40;99.90;;;-141.84;49.37;20714.28;5055072;28;20239;-61
2022/09/22 10:13:33;;;;;;;1.15;1.05;;;16.30;99.90;;;-141.84;46.86;20695.97;5055595;28;20230;-60
2022/09/22 10:16:21;;;;;;;0.82;0.82;;;16.30;99.90;;;-141.84;46.56;20635.00;5055473;28;20189;-60
2022/09/22 10:19:01;;;;;;;1.20;1.10;;;16.00;99.90;;;-141.84;48.36;20555.72;5055695;28;20241;-60
2022/09/22 10:21:29;;;;;;;1.10;1.00;;;15.60;99.90;;;-141.84;50.11;20445.94;5055747;28;20304;-66
2022/09/22 10:24:00;;;;;;;1.10;1.00;;;15.10;99.90;;;-141.84;49.61;20429.69;5055068;28;20248;-66
2022/09/22 10:26:31;;;;;;;1.50;1.10;;;14.90;99.90;;;-141.84;48.23;20513.03;5055082;28;20304;-66
2022/09/22 10:29:19;;;;;;;1.52;1.15;;;15.00;99.90;;;-141.84;47.88;20513.03;5055403;28;20221;-66
2022/09/22 10:32:05;;;;;;;0.85;0.80;;;15.10;99.90;;;-141.84;46.76;20545.56;5055074;28;20221;-66
2022/09/22 10:34:36;;;;;;;0.75;0.73;;;15.20;99.90;;;-141.84;46.76;20618.72;5055118;28;20225;-66
2022/09/22 10:37:09;;;;;;;1.10;0.82;;;15.30;99.90;;;-141.84;46.97;20620.78;5055136;28;20205;-66